UKLU/UDJ METAR and TAF weather

Enter ICAO airport designator
Station Type Date Time Source
UKLU METAR 2020/06/06 14:00 UTC NOAA

UKLU 061400Z 12002MPS 070V180 9999 SCT032CB SCT/// 24/16 Q1009 R10/290160 NOSIG


Station Type Date Time Source
UKLU Decoded METAR 2020/06/06 14:00 UTC NOAA

Uzhhorod, Ukraine (UKLU) 48-38-05N 022-15-53E
Jun 06, 2020 - 10:00 AM EDT / 2020.06.06 1400 UTC
Wind: from the ESE (120 degrees) at 4 MPH (4 KT) (direction variable):0
Visibility: greater than 7 mile(s):0
Sky conditions: partly cloudy
Weather: Cumulonimbus clouds observed
Temperature: 75 F (24 C)
Dew Point: 60 F (16 C)
Relative Humidity: 60%
Pressure (altimeter): 29.80 in. Hg (1009 hPa)
ob: UKLU 061400Z 12002MPS 070V180 9999 SCT032CB SCT/// 24/16 Q1009 R10/290160 NOSIG
cycle: 14

Station Type Date Time Source
UKLU TAF 2019/04/25 06:24 UTC NOAA

TAF TAF UKLU 250504Z 2506/2615 12005MPS 9999 NSC
TEMPO 2506/2512 15007G12MPS SCT040

Example: see airport list